Time;durP1;ratioP1;P1;durP2;ratioP2;P2;SDS_P1;SDS_P2;PMS_P1;PMS_P2;Temp;Humidity;BMP_temperature;BMP_pressure;BME280_temperature;BME280_humidity;BME280_pressure;Samples;Min_cycle;Max_cycle;Signal;HPM_P1;HPM_P2
2022/03/05 00:00:08;;;;;;;;;58.50;44.50;;;;;11.68;62.63;101719.44;2442311;28;45423;-79
2022/03/05 00:01:18;;;;;;;;;56.25;45.75;;;;;11.69;62.77;101722.94;2442303;28;44686;-79
2022/03/05 00:02:29;;;;;;;;;60.75;45.50;;;;;11.65;62.65;101722.16;2442226;28;46342;-79
2022/03/05 00:03:39;;;;;;;;;54.50;42.50;;;;;11.66;62.60;101723.00;2447685;28;45291;-79
2022/03/05 00:04:51;;;;;;;;;61.50;45.75;;;;;11.66;62.69;101728.28;2442251;28;45403;-79
2022/03/05 00:06:02;;;;;;;;;54.50;43.25;;;;;11.67;62.80;101723.00;2442341;28;45413;-79
2022/03/05 00:07:12;;;;;;;;;60.50;46.00;;;;;11.68;62.73;101718.59;2445031;28;45252;-79
2022/03/05 00:08:23;;;;;;;;;56.50;42.75;;;;;11.64;62.49;101712.53;2442367;28;44603;-79
2022/03/05 00:09:33;;;;;;;;;59.75;44.75;;;;;11.68;62.79;101713.34;2442330;28;45321;-79
2022/03/05 00:10:44;;;;;;;;;69.25;49.25;;;;;11.67;62.71;101715.09;2446737;28;45181;-80
2022/03/05 00:11:54;;;;;;;;;54.75;43.50;;;;;11.69;62.60;101715.06;2448121;28;45436;-80
2022/03/05 00:13:05;;;;;;;;;55.75;44.50;;;;;11.67;62.71;101720.34;2448169;28;45452;-80
2022/03/05 00:14:16;;;;;;;;;63.50;47.75;;;;;11.67;62.76;101715.09;2449296;28;46185;-80
2022/03/05 00:15:28;;;;;;;;;56.75;43.75;;;;;11.66;62.48;101718.63;2442427;28;45405;-80
2022/03/05 00:16:38;;;;;;;;;62.50;46.75;;;;;11.66;62.63;101710.72;2444432;28;45306;-80
2022/03/05 00:17:49;;;;;;;;;60.00;45.50;;;;;11.67;62.62;101711.59;2446514;27;45260;-80
2022/03/05 00:18:59;;;;;;;;;61.25;46.50;;;;;11.68;62.74;101711.53;2443806;28;47907;-80
2022/03/05 00:20:11;;;;;;;;;56.75;45.25;;;;;11.71;62.81;101721.16;2452068;27;45223;-80
2022/03/05 00:21:22;;;;;;;;;61.00;46.50;;;;;11.70;62.75;101717.63;2450075;28;46490;-80
2022/03/05 00:22:32;;;;;;;;;58.00;44.75;;;;;11.71;62.59;101715.88;2449525;27;45230;-80
2022/03/05 00:23:43;;;;;;;;;62.00;49.25;;;;;11.72;62.84;101719.38;2442219;28;46571;-80
2022/03/05 00:24:54;;;;;;;;;64.25;46.75;;;;;11.73;62.63;101713.22;2444090;28;45433;-80
2022/03/05 00:26:04;;;;;;;;;60.50;44.75;;;;;11.72;62.81;101715.00;2446837;27;45398;-80
2022/03/05 00:27:17;;;;;;;;;58.75;46.25;;;;;11.71;62.80;101710.59;2442185;28;45255;-80
2022/03/05 00:28:27;;;;;;;;;63.25;47.25;;;;;11.71;62.52;101710.59;2442138;28;45506;-80
2022/03/05 00:29:37;;;;;;;;;60.25;46.00;;;;;11.70;62.65;101712.38;2442180;28;45239;-80
2022/03/05 00:30:48;;;;;;;;;59.25;45.00;;;;;11.73;62.67;101718.50;2441755;28;45332;-80
2022/03/05 00:31:58;;;;;;;;;61.75;46.50;;;;;11.73;62.91;101718.50;2449335;28;45206;-80
2022/03/05 00:33:08;;;;;;;;;60.75;47.00;;;;;11.73;62.67;101713.22;2442206;28;45251;-80
2022/03/05 00:34:19;;;;;;;;;59.50;45.25;;;;;11.75;62.73;101714.06;2442168;28;44759;-80
2022/03/05 00:35:30;;;;;;;;;61.25;47.75;;;;;11.78;62.91;101722.75;2441705;27;45217;-80
2022/03/05 00:36:40;;;;;;;;;55.50;45.25;;;;;11.78;62.68;101722.75;2461954;27;45232;-80
2022/03/05 00:37:50;;;;;;;;;56.50;43.00;;;;;11.78;63.17;101717.47;2444673;27;45336;-80
2022/03/05 00:39:01;;;;;;;;;56.75;43.50;;;;;11.73;62.74;101716.69;2442111;28;44604;-80
2022/03/05 00:40:12;;;;;;;;;54.75;43.25;;;;;11.72;62.80;101709.72;2441948;28;46689;-81
2022/03/05 00:41:22;;;;;;;;;58.75;42.75;;;;;11.70;62.94;101707.09;2445949;28;45157;-80
2022/03/05 00:42:32;;;;;;;;;55.00;42.75;;;;;11.72;62.54;101712.34;2448708;27;45444;-80
2022/03/05 00:43:43;;;;;;;;;57.00;44.25;;;;;11.69;62.90;101702.75;2442289;28;45257;-80
2022/03/05 00:44:53;;;;;;;;;56.00;43.00;;;;;11.73;62.99;101707.97;2441901;28;46295;-80
2022/03/05 00:46:04;;;;;;;;;57.25;45.25;;;;;11.71;62.83;101710.59;2441793;28;45164;-81
2022/03/05 00:47:14;;;;;;;;;59.50;46.75;;;;;11.72;63.02;101706.22;2441918;28;45552;-81
2022/03/05 00:48:24;;;;;;;;;56.50;44.00;;;;;11.72;62.92;101714.13;2442213;28;45310;-81
2022/03/05 00:49:35;;;;;;;;;60.50;45.00;;;;;11.71;63.03;101707.97;2441893;28;45569;-81
2022/03/05 00:50:45;;;;;;;;;54.75;43.25;;;;;11.70;62.63;101701.84;2442057;28;45321;-80
2022/03/05 00:51:56;;;;;;;;;55.75;43.25;;;;;11.73;63.07;101700.91;2448790;28;45575;-82
2022/03/05 00:53:06;;;;;;;;;48.50;39.00;;;;;11.75;62.56;101708.78;2442034;28;44743;-82
2022/03/05 00:54:17;;;;;;;;;53.75;43.00;;;;;11.74;62.72;101702.66;2441805;28;45992;-81
2022/03/05 00:55:27;;;;;;;;;53.75;41.25;;;;;11.78;62.80;101711.34;2442079;28;45246;-83
2022/03/05 00:56:38;;;;;;;;;55.75;43.50;;;;;11.78;62.63;101708.69;2441917;28;45350;-87
2022/03/05 00:57:48;;;;;;;;;54.25;42.50;;;;;11.77;62.51;101706.97;2441141;28;44607;-86
2022/03/05 00:58:59;;;;;;;;;56.50;44.50;;;;;11.80;62.80;101707.75;2441368;28;45383;-86
2022/03/05 01:00:11;;;;;;;;;58.75;43.75;;;;;11.82;62.51;101713.03;2441362;28;45229;-85
2022/03/05 01:01:21;;;;;;;;;57.00;43.75;;;;;11.82;62.67;101705.13;2434404;28;47854;-85
2022/03/05 01:02:32;;;;;;;;;58.25;45.00;;;;;11.83;62.65;101714.72;2441792;28;44750;-85
2022/03/05 01:03:43;;;;;;;;;56.25;43.00;;;;;11.84;63.03;101703.31;2443082;28;45464;-85
2022/03/05 01:04:53;;;;;;;;;55.75;44.25;;;;;11.86;62.50;101706.78;2450925;28;45434;-85
2022/03/05 01:06:05;;;;;;;;;54.25;41.75;;;;;11.84;62.61;101708.56;2442441;28;46585;-87
2022/03/05 01:07:15;;;;;;;;;53.75;40.75;;;;;11.81;62.55;101701.59;2441936;28;45223;-86
2022/03/05 01:08:26;;;;;;;;;52.00;41.25;;;;;11.82;62.57;101705.13;2441753;28;46499;-80
2022/03/05 01:09:37;;;;;;;;;55.75;44.00;;;;;11.80;62.58;101699.84;2441206;28;45232;-80
2022/03/05 01:10:47;;;;;;;;;52.50;41.25;;;;;11.79;62.62;101697.28;2446132;28;45353;-80
2022/03/05 01:11:58;;;;;;;;;52.25;41.50;;;;;11.80;62.70;101706.91;2446623;28;44791;-80
2022/03/05 01:13:09;;;;;;;;;51.50;40.75;;;;;11.77;62.55;101709.63;2444257;28;46155;-80
2022/03/05 01:14:19;;;;;;;;;54.00;43.25;;;;;11.78;62.44;101704.31;2447856;27;45257;-80
2022/03/05 01:15:30;;;;;;;;;53.75;43.00;;;;;11.75;62.22;101704.41;2441718;28;46264;-80
2022/03/05 01:16:40;;;;;;;;;56.00;43.00;;;;;11.71;62.43;101705.34;2442629;28;45241;-80
2022/03/05 01:17:50;;;;;;;;;52.00;42.50;;;;;11.68;62.40;101703.63;2441599;28;45292;-80
2022/03/05 01:19:02;;;;;;;;;52.50;41.50;;;;;11.65;62.39;101705.50;2441850;28;45205;-80
2022/03/05 01:20:12;;;;;;;;;55.25;42.25;;;;;11.64;62.34;101715.16;2442003;28;45513;-80
2022/03/05 01:21:22;;;;;;;;;53.00;42.00;;;;;11.64;62.61;101714.28;2447789;28;45194;-80
2022/03/05 01:22:33;;;;;;;;;50.25;40.75;;;;;11.62;62.34;101706.44;2441653;28;46160;-80
2022/03/05 01:23:43;;;;;;;;;55.00;42.25;;;;;11.63;62.55;101702.88;2441828;28;45462;-80
2022/03/05 01:24:54;;;;;;;;;56.25;43.50;;;;;11.63;62.17;101704.66;2441670;28;46189;-80
2022/03/05 01:26:04;;;;;;;;;54.25;40.00;;;;;11.62;62.31;101705.56;2441740;28;45381;-80
2022/03/05 01:27:15;;;;;;;;;53.75;41.25;;;;;11.61;62.21;101702.03;2444444;28;45476;-80
2022/03/05 01:28:25;;;;;;;;;57.25;42.75;;;;;11.61;62.22;101701.16;2441694;28;45235;-80
2022/03/05 01:29:36;;;;;;;;;52.25;41.50;;;;;11.60;62.27;101702.97;2451074;28;45361;-80
2022/03/05 01:30:46;;;;;;;;;57.50;43.75;;;;;11.62;62.19;101702.91;2445511;27;44759;-80
2022/03/05 01:31:56;;;;;;;;;48.00;40.00;;;;;11.61;62.04;101695.91;2441722;28;45398;-80
2022/03/05 01:33:07;;;;;;;;;56.00;41.50;;;;;11.61;62.13;101696.78;2441782;28;45249;-80
2022/03/05 01:34:17;;;;;;;;;57.00;40.50;;;;;11.59;61.92;101695.94;2441466;28;45432;-80
2022/03/05 01:35:28;;;;;;;;;54.75;43.00;;;;;11.58;62.11;101696.88;2441469;28;45181;-80
2022/03/05 01:36:38;;;;;;;;;55.50;43.50;;;;;11.59;62.00;101690.69;2457403;27;45448;-80
2022/03/05 01:37:48;;;;;;;;;55.75;42.50;;;;;11.59;62.07;101698.59;2441763;28;45141;-80
2022/03/05 01:38:59;;;;;;;;;50.00;41.00;;;;;11.58;62.27;101702.13;2441590;28;45236;-80
2022/03/05 01:40:09;;;;;;;;;52.50;41.00;;;;;11.56;61.88;101702.16;2441853;28;45216;-80
2022/03/05 01:41:20;;;;;;;;;53.25;42.50;;;;;11.56;62.17;101704.78;2443696;28;45350;-80
2022/03/05 01:42:31;;;;;;;;;53.25;42.50;;;;;11.54;62.03;101700.44;2443014;28;44733;-80
2022/03/05 01:43:41;;;;;;;;;52.00;40.75;;;;;11.53;62.04;101702.22;2441632;28;45477;-80
2022/03/05 01:44:52;;;;;;;;;53.25;42.25;;;;;11.53;62.34;101699.56;2441652;28;44699;-80
2022/03/05 01:46:02;;;;;;;;;53.50;43.00;;;;;11.54;62.08;101703.06;2441327;28;45382;-80
2022/03/05 01:47:13;;;;;;;;;54.75;42.50;;;;;11.56;62.34;101701.28;2448216;28;45239;-80
2022/03/05 01:48:23;;;;;;;;;56.75;42.25;;;;;11.57;62.08;101706.53;2441568;27;46430;-80
2022/03/05 01:49:33;;;;;;;;;55.25;41.75;;;;;11.55;62.06;101702.19;2441633;28;44789;-82
2022/03/05 01:50:44;;;;;;;;;50.75;42.00;;;;;11.53;62.15;101704.00;2441351;28;45364;-83
2022/03/05 01:51:54;;;;;;;;;48.25;38.00;;;;;11.53;62.34;101701.38;2448369;28;45211;-87
2022/03/05 01:53:05;;;;;;;;;53.25;43.25;;;;;11.49;62.16;101697.91;2441631;28;47832;-87
2022/03/05 01:54:15;;;;;;;;;53.00;42.50;;;;;11.49;62.18;101700.56;2440264;28;44779;-86
2022/03/05 01:55:26;;;;;;;;;51.75;41.25;;;;;11.48;62.15;101704.09;2441646;28;46560;-86
2022/03/05 01:56:38;;;;;;;;;54.00;40.75;;;;;11.46;62.21;101705.88;2441648;28;45295;-86
2022/03/05 01:57:49;;;;;;;;;52.50;39.00;;;;;11.46;62.74;101697.97;2441600;28;46346;-86
2022/03/05 01:59:00;;;;;;;;;53.75;39.25;;;;;11.42;62.57;101699.81;2441628;28;45215;-88
2022/03/05 02:00:13;;;;;;;;;54.75;42.75;;;;;11.42;62.60;101699.81;2441451;28;45577;-88
2022/03/05 02:01:25;;;;;;;;;51.75;41.25;;;;;11.39;62.42;101701.63;2443416;28;45301;-84
2022/03/05 02:02:35;;;;;;;;;50.00;41.00;;;;;11.37;62.48;101709.56;2444862;27;47270;-85
2022/03/05 02:03:46;;;;;;;;;46.25;36.25;;;;;11.36;62.42;101705.19;2441513;28;45327;-84
2022/03/05 02:04:57;;;;;;;;;49.00;40.25;;;;;11.34;62.43;101704.38;2441350;28;45303;-86
2022/03/05 02:06:07;;;;;;;;;48.50;39.00;;;;;11.32;62.52;101706.16;2447644;28;45240;-86
2022/03/05 02:07:17;;;;;;;;;50.25;41.50;;;;;11.28;62.32;101701.88;2446175;27;46224;-86
2022/03/05 02:08:29;;;;;;;;;56.50;43.50;;;;;11.26;62.49;101701.88;2441444;28;45293;-87
2022/03/05 02:09:39;;;;;;;;;50.25;39.00;;;;;11.27;62.69;101702.75;2441444;28;45520;-87
2022/03/05 02:10:49;;;;;;;;;51.75;41.75;;;;;11.27;62.71;101698.38;2446650;28;45220;-87
2022/03/05 02:12:00;;;;;;;;;51.00;39.00;;;;;11.30;62.38;101700.06;2446769;27;45364;-86
2022/03/05 02:13:10;;;;;;;;;50.75;40.25;;;;;11.32;62.48;101700.91;2445317;28;45622;-81
2022/03/05 02:14:21;;;;;;;;;50.25;41.00;;;;;11.35;62.35;101701.72;2450021;27;45460;-80
2022/03/05 02:15:33;;;;;;;;;49.25;39.50;;;;;11.35;62.58;101695.59;2449637;27;45206;-80
2022/03/05 02:16:44;;;;;;;;;49.50;40.25;;;;;11.36;62.63;101705.19;2441203;28;45401;-80
2022/03/05 02:17:54;;;;;;;;;53.75;41.00;;;;;11.36;62.28;101698.16;2441292;28;45338;-80
2022/03/05 02:19:05;;;;;;;;;51.25;40.00;;;;;11.37;62.54;101704.31;2441227;28;45466;-80
2022/03/05 02:20:15;;;;;;;;;56.00;41.00;;;;;11.36;62.63;101699.94;2441331;28;45302;-80
2022/03/05 02:21:27;;;;;;;;;51.00;39.50;;;;;11.37;62.50;101706.94;2443337;28;45384;-80
2022/03/05 02:22:37;;;;;;;;;49.75;40.25;;;;;11.39;62.65;101702.50;2444385;27;45420;-80
2022/03/05 02:23:48;;;;;;;;;53.25;41.75;;;;;11.37;62.32;101701.69;2447390;28;45366;-79
2022/03/05 02:24:59;;;;;;;;;52.75;41.75;;;;;11.37;62.48;101693.78;2448896;28;44623;-81
2022/03/05 02:26:09;;;;;;;;;55.50;41.50;;;;;11.35;62.33;101698.22;2441386;28;45377;-82
2022/03/05 02:27:24;;;;;;;;;49.25;40.50;;;;;11.36;62.33;101702.56;2441242;28;44591;-82
2022/03/05 02:28:36;;;;;;;;;48.25;38.00;;;;;11.35;61.83;101706.13;2441228;28;46028;-82
2022/03/05 02:29:46;;;;;;;;;54.25;39.50;;;;;11.32;62.27;101699.16;2441334;28;44780;-82
2022/03/05 02:30:57;;;;;;;;;45.50;37.00;;;;;11.27;62.40;101695.72;2441027;28;45349;-85
2022/03/05 02:32:08;;;;;;;;;49.00;37.75;;;;;11.26;62.21;101701.88;2448348;28;44660;-86
2022/03/05 02:33:19;;;;;;;;;52.25;39.25;;;;;11.23;62.36;101697.59;2447704;28;45370;-79
2022/03/05 02:34:30;;;;;;;;;45.00;37.50;;;;;11.25;62.36;101698.41;2445620;27;45578;-79
2022/03/05 02:35:43;;;;;;;;;45.00;37.00;;;;;11.21;62.25;101694.09;2443893;27;45364;-81
2022/03/05 02:36:54;;;;;;;;;54.00;38.75;;;;;11.20;62.28;101688.88;2445967;27;45376;-80
2022/03/05 02:38:04;;;;;;;;;47.25;37.25;;;;;11.18;62.32;101691.53;2441011;28;45272;-80
2022/03/05 02:39:15;;;;;;;;;45.00;36.00;;;;;11.19;62.31;101689.75;2441369;28;45442;-81
2022/03/05 02:40:25;;;;;;;;;46.50;36.50;;;;;11.20;62.41;101689.75;2441081;28;46189;-81
2022/03/05 02:41:35;;;;;;;;;48.50;37.50;;;;;11.21;62.30;101694.09;2442256;28;45232;-81
2022/03/05 02:42:46;;;;;;;;;49.25;38.75;;;;;11.23;62.48;101694.06;2441136;28;46423;-81
2022/03/05 02:43:57;;;;;;;;;43.75;35.00;;;;;11.20;62.22;101689.75;2441428;28;44680;-80
2022/03/05 02:45:08;;;;;;;;;49.50;38.75;;;;;11.21;62.42;101694.09;2442392;28;46209;-80
2022/03/05 02:46:18;;;;;;;;;45.25;36.00;;;;;11.21;62.36;101688.81;2440938;28;45437;-80
2022/03/05 02:47:28;;;;;;;;;46.75;36.00;;;;;11.22;62.47;101682.69;2440194;28;46386;-80
2022/03/05 02:48:39;;;;;;;;;43.50;35.25;;;;;11.27;62.46;101692.22;2440811;28;45248;-80
2022/03/05 02:49:49;;;;;;;;;49.25;38.75;;;;;11.28;62.34;101688.72;2440846;28;46411;-81
2022/03/05 02:51:00;;;;;;;;;49.25;35.75;;;;;11.27;62.69;101686.97;2441184;28;45263;-80
2022/03/05 02:52:10;;;;;;;;;51.00;38.00;;;;;11.29;62.48;101686.03;2450102;28;45328;-80
2022/03/05 02:53:21;;;;;;;;;33.50;27.75;;;;;11.31;62.64;101688.66;2446353;27;45148;-80
2022/03/05 02:54:31;;;;;;;;;49.00;37.50;;;;;11.31;62.58;101688.66;2449319;27;45548;-80
2022/03/05 02:55:44;;;;;;;;;44.25;33.00;;;;;11.32;62.75;101691.25;2441304;28;44571;-83
2022/03/05 02:56:54;;;;;;;;;44.00;35.25;;;;;11.32;62.67;101693.00;2447855;28;47183;-84
2022/03/05 02:58:05;;;;;;;;;46.00;35.75;;;;;11.31;62.61;101684.25;2443091;28;45406;-81
2022/03/05 02:59:15;;;;;;;;;44.25;35.00;;;;;11.29;62.74;101680.78;2450257;28;46436;-81
2022/03/05 03:00:26;;;;;;;;;48.25;38.00;;;;;11.29;62.54;101686.03;2451071;27;45210;-81
2022/03/05 03:01:36;;;;;;;;;47.00;36.75;;;;;11.29;62.71;101685.16;2449361;28;45449;-84
2022/03/05 03:02:47;;;;;;;;;46.00;34.75;;;;;11.29;62.80;101677.28;2450148;28;45215;-84
2022/03/05 03:03:58;;;;;;;;;48.50;38.25;;;;;11.30;62.66;101681.66;2440499;28;45268;-81
2022/03/05 03:05:08;;;;;;;;;48.75;38.25;;;;;11.29;62.57;101685.16;2441692;28;45410;-81
2022/03/05 03:06:18;;;;;;;;;44.50;37.00;;;;;11.29;62.93;101679.91;2442708;28;45358;-81
2022/03/05 03:07:29;;;;;;;;;47.25;38.50;;;;;11.28;62.47;101684.31;2443011;28;45209;-81
2022/03/05 03:08:39;;;;;;;;;46.00;35.50;;;;;11.30;62.86;101676.38;2441832;28;47342;-79
2022/03/05 03:09:49;;;;;;;;;37.50;33.50;;;;;11.29;62.77;101674.63;2445545;28;45508;-79
2022/03/05 03:11:00;;;;;;;;;46.25;38.50;;;;;11.32;62.62;101683.34;2451422;27;45241;-79
2022/03/05 03:12:10;;;;;;;;;48.00;37.75;;;;;11.32;62.81;101685.13;2442886;28;45203;-82
2022/03/05 03:13:21;;;;;;;;;49.00;38.50;;;;;11.29;62.46;101675.50;2447649;28;46138;-82
2022/03/05 03:14:31;;;;;;;;;46.50;37.25;;;;;11.30;62.49;101677.25;2449827;27;44752;-82
2022/03/05 03:15:42;;;;;;;;;45.25;36.50;;;;;11.33;62.66;101678.97;2451712;28;45556;-82
2022/03/05 03:16:52;;;;;;;;;50.25;38.00;;;;;11.32;62.43;101678.09;2443605;27;45382;-79
2022/03/05 03:18:02;;;;;;;;;49.25;38.50;;;;;11.31;62.73;101681.59;2442501;28;46375;-79
2022/03/05 03:19:13;;;;;;;;;49.50;39.50;;;;;11.32;62.70;101679.84;2442762;28;45226;-79
2022/03/05 03:20:25;;;;;;;;;48.00;36.75;;;;;11.33;62.69;101678.97;2450257;28;45431;-79
2022/03/05 03:21:35;;;;;;;;;47.50;38.00;;;;;11.33;62.66;101686.84;2444545;28;45389;-79
2022/03/05 03:22:46;;;;;;;;;49.00;39.75;;;;;11.34;62.82;101681.56;2442574;28;46410;-80
2022/03/05 03:23:56;;;;;;;;;19.50;17.75;;;;;11.35;62.61;101677.16;2444024;28;44781;-80
2022/03/05 03:25:08;;;;;;;;;48.75;38.00;;;;;11.35;62.68;101678.03;2442594;28;45425;-80
2022/03/05 03:26:18;;;;;;;;;46.50;37.75;;;;;11.36;62.53;101674.47;2442717;28;45266;-80
2022/03/05 03:27:29;;;;;;;;;49.50;37.25;;;;;11.34;62.60;101680.69;2442605;28;46333;-80
2022/03/05 03:28:39;;;;;;;;;41.75;35.75;;;;;11.34;62.60;101681.56;2442592;28;45297;-80
2022/03/05 03:29:50;;;;;;;;;47.75;37.25;;;;;11.35;62.51;101679.78;2445321;28;46274;-80
2022/03/05 03:31:00;;;;;;;;;49.25;39.50;;;;;11.34;62.41;101678.03;2452349;27;44656;-80
2022/03/05 03:32:10;;;;;;;;;46.00;35.50;;;;;11.33;62.52;101681.59;2443034;27;46378;-80
2022/03/05 03:33:21;;;;;;;;;50.50;38.75;;;;;11.34;62.52;101680.69;2448906;28;45197;-80
2022/03/05 03:34:31;;;;;;;;;50.50;37.00;;;;;11.31;62.38;101681.59;2442488;28;45295;-81
2022/03/05 03:35:42;;;;;;;;;50.75;38.50;;;;;11.28;62.29;101676.44;2443630;27;44631;-81
2022/03/05 03:36:52;;;;;;;;;48.50;37.50;;;;;11.30;62.67;101676.38;2442598;28;46551;-81
2022/03/05 03:38:03;;;;;;;;;47.50;36.00;;;;;11.28;62.85;101671.16;2442452;28;45228;-81
2022/03/05 03:39:13;;;;;;;;;43.25;36.00;;;;;11.31;62.52;101675.50;2442450;28;46190;-81
2022/03/05 03:40:24;;;;;;;;;44.75;37.75;;;;;11.30;62.60;101668.50;2450019;28;44605;-81
2022/03/05 03:41:34;;;;;;;;;46.75;35.25;;;;;11.30;62.32;101674.63;2442792;27;46600;-81
2022/03/05 03:42:48;;;;;;;;;42.25;33.25;;;;;11.30;62.40;101679.88;2442550;28;45338;-81
2022/03/05 03:43:58;;;;;;;;;45.25;36.25;;;;;11.30;62.55;101679.00;2446564;27;46532;-81
2022/03/05 03:45:09;;;;;;;;;47.75;38.00;;;;;11.31;62.57;101680.75;2442660;28;45150;-81
2022/03/05 03:46:19;;;;;;;;;48.50;38.00;;;;;11.30;62.55;101674.63;2442111;28;45248;-81
2022/03/05 03:47:29;;;;;;;;;48.25;37.25;;;;;11.31;62.47;101688.66;2442643;28;45236;-81
2022/03/05 03:48:40;;;;;;;;;43.75;35.75;;;;;11.29;62.45;101678.16;2442427;28;46349;-81
2022/03/05 03:49:50;;;;;;;;;45.75;36.00;;;;;11.28;61.96;101678.19;2444969;28;44728;-81
2022/03/05 03:51:01;;;;;;;;;46.75;38.00;;;;;11.27;62.53;101679.06;2444893;27;46439;-81
2022/03/05 03:52:15;;;;;;;;;49.75;40.00;;;;;11.27;62.54;101687.84;2445889;28;45287;-81
2022/03/05 03:53:25;;;;;;;;;49.75;39.00;;;;;11.27;62.62;101690.47;2451333;27;46362;-81
2022/03/05 03:54:36;;;;;;;;;49.25;38.50;;;;;11.25;62.42;101690.53;2451656;28;45176;-81
2022/03/05 03:55:46;;;;;;;;;45.00;36.25;;;;;11.25;62.42;101693.16;2451484;28;46172;-81
2022/03/05 03:56:57;;;;;;;;;46.75;39.00;;;;;11.27;62.31;101689.59;2452301;27;44731;-83
2022/03/05 03:58:07;;;;;;;;;46.25;38.00;;;;;11.26;62.25;101696.63;2449949;28;46415;-83
2022/03/05 03:59:18;;;;;;;;;47.00;39.75;;;;;11.23;62.05;101689.69;2441783;28;45263;-84
2022/03/05 04:00:28;;;;;;;;;46.00;35.25;;;;;11.22;62.36;101690.56;2449401;28;45333;-84
2022/03/05 04:01:39;;;;;;;;;51.25;37.00;;;;;11.23;62.54;101684.41;2448339;27;45306;-85
2022/03/05 04:02:49;;;;;;;;;45.75;36.25;;;;;11.21;62.49;101688.81;2442318;28;45310;-82
2022/03/05 04:04:00;;;;;;;;;48.00;38.25;;;;;11.23;62.20;101692.31;2442653;28;44675;-81
2022/03/05 04:05:11;;;;;;;;;46.00;35.75;;;;;11.23;62.42;101687.06;2442100;28;45345;-81
2022/03/05 04:06:21;;;;;;;;;45.25;36.75;;;;;11.24;62.38;101683.50;2442457;28;45221;-80
2022/03/05 04:09:01;;;;;;;;;48.50;39.25;;;;;11.22;62.30;101685.31;2442482;28;45250;-82
2022/03/05 04:10:11;;;;;;;;;46.75;36.50;;;;;11.20;62.29;101684.47;2443921;28;46446;-82
2022/03/05 04:11:21;;;;;;;;;51.50;37.75;;;;;11.19;62.46;101685.38;2449015;28;45385;-82
2022/03/05 04:12:32;;;;;;;;;50.75;38.50;;;;;11.17;62.37;101681.91;2449083;28;46258;-82
2022/03/05 04:13:44;;;;;;;;;48.25;36.50;;;;;11.19;62.46;101685.38;2448572;27;45218;-82
2022/03/05 04:14:55;;;;;;;;;50.75;40.00;;;;;11.19;62.53;101684.50;2446041;28;45517;-88
2022/03/05 04:16:06;;;;;;;;;49.00;40.00;;;;;11.19;62.35;101690.63;2450905;28;45295;-86
2022/03/05 04:17:16;;;;;;;;;51.00;40.25;;;;;11.19;62.19;101682.72;2450708;28;45483;-86
2022/03/05 04:18:27;;;;;;;;;48.00;38.25;;;;;11.17;62.34;101683.66;2451036;28;45335;-86
2022/03/05 04:19:37;;;;;;;;;49.50;38.00;;;;;11.16;62.35;101684.56;2451548;28;45302;-86
2022/03/05 04:20:47;;;;;;;;;46.25;38.25;;;;;11.16;62.29;101689.84;2452018;27;45252;-87
2022/03/05 04:21:58;;;;;;;;;48.50;38.50;;;;;11.14;62.69;101685.47;2451916;27;45334;-85
2022/03/05 04:23:08;;;;;;;;;52.00;40.25;;;;;11.18;62.64;101693.31;2452048;27;45341;-85
2022/03/05 04:24:18;;;;;;;;;45.50;38.50;;;;;11.17;62.45;101687.16;2447523;27;46263;-85
2022/03/05 04:25:29;;;;;;;;;51.00;39.25;;;;;11.16;62.50;101685.41;2442432;28;44535;-85
2022/03/05 04:26:39;;;;;;;;;45.50;36.75;;;;;11.17;62.43;101687.16;2449334;28;46568;-85
2022/03/05 04:27:50;;;;;;;;;45.75;39.25;;;;;11.17;62.35;101681.91;2452062;27;45132;-85
2022/03/05 04:29:00;;;;;;;;;46.50;36.50;;;;;11.19;62.54;101684.50;2451984;27;45256;-85
2022/03/05 04:30:11;;;;;;;;;53.00;40.00;;;;;11.19;62.49;101685.38;2452104;27;44527;-85
2022/03/05 04:31:22;;;;;;;;;48.75;39.00;;;;;11.22;62.55;101687.06;2451514;27;45579;-85
2022/03/05 04:32:32;;;;;;;;;48.75;39.75;;;;;11.23;62.35;101687.06;2452135;27;45165;-85
2022/03/05 04:33:42;;;;;;;;;52.00;41.25;;;;;11.22;62.27;101690.56;2448632;27;45336;-85
2022/03/05 04:34:53;;;;;;;;;50.75;40.50;;;;;11.23;62.29;101684.41;2442492;28;44686;-85
2022/03/05 04:36:03;;;;;;;;;50.00;40.25;;;;;11.23;62.50;101692.31;2446249;27;45520;-87
2022/03/05 04:37:14;;;;;;;;;53.00;41.75;;;;;11.20;62.30;101687.09;2451328;27;44724;-87
2022/03/05 04:38:25;;;;;;;;;53.75;41.25;;;;;11.18;62.59;101686.28;2441135;28;47382;-86
2022/03/05 04:39:35;;;;;;;;;47.75;39.50;;;;;11.20;62.56;101694.13;2441631;28;44685;-86
2022/03/05 04:40:45;;;;;;;;;52.00;39.25;;;;;11.19;62.73;101698.53;2441080;28;46601;-87
2022/03/05 04:41:56;;;;;;;;;46.75;38.50;;;;;11.19;62.50;101695.88;2441415;28;45398;-88
2022/03/05 04:43:06;;;;;;;;;55.00;42.50;;;;;11.18;62.67;101694.16;2441439;28;46209;-88
2022/03/05 04:44:17;;;;;;;;;51.75;38.75;;;;;11.20;62.52;101691.50;2443014;28;45193;-87
2022/03/05 04:45:27;;;;;;;;;56.00;42.50;;;;;11.18;62.42;101695.94;2448949;28;45379;-87
2022/03/05 04:46:37;;;;;;;;;49.25;40.00;;;;;11.17;62.64;101695.06;2451709;28;45214;-87
2022/03/05 04:47:48;;;;;;;;;51.50;39.50;;;;;11.18;62.87;101699.44;2451790;27;46337;-86
2022/03/05 04:48:58;;;;;;;;;50.25;40.75;;;;;11.17;62.80;101700.31;2451817;28;45443;-87
2022/03/05 04:50:09;;;;;;;;;54.00;43.00;;;;;11.18;62.82;101702.06;2451583;27;45523;-85
2022/03/05 04:51:20;;;;;;;;;52.50;41.50;;;;;11.16;62.56;101695.94;2451844;28;45273;-85
2022/03/05 04:52:30;;;;;;;;;50.00;40.25;;;;;11.13;62.71;101696.03;2445029;28;45380;-84
2022/03/05 04:53:41;;;;;;;;;51.50;37.75;;;;;11.12;62.50;101694.28;2441933;28;45247;-84
2022/03/05 04:54:51;;;;;;;;;47.25;38.25;;;;;11.08;62.60;101693.50;2447354;28;45267;-85
2022/03/05 04:56:01;;;;;;;;;53.50;40.50;;;;;11.08;63.31;101697.88;2442048;28;45171;-84
2022/03/05 04:57:12;;;;;;;;;50.00;42.00;;;;;11.10;62.79;101699.59;2441868;28;45208;-82
2022/03/05 04:58:22;;;;;;;;;50.25;40.25;;;;;11.11;62.78;101697.81;2441936;28;45258;-82
2022/03/05 04:59:33;;;;;;;;;54.00;41.50;;;;;11.09;62.92;101699.59;2441783;28;46428;-81
2022/03/05 05:00:43;;;;;;;;;49.75;39.00;;;;;11.09;62.48;101699.59;2441873;28;44823;-81
2022/03/05 05:01:54;;;;;;;;;52.50;42.25;;;;;11.02;63.03;101697.09;2442420;28;46517;-81
2022/03/05 05:03:04;;;;;;;;;54.25;41.75;;;;;11.00;62.73;101698.91;2446936;27;45220;-81
2022/03/05 05:04:14;;;;;;;;;52.25;41.00;;;;;10.98;62.66;101691.94;2444408;28;46660;-81
2022/03/05 05:05:25;;;;;;;;;51.50;41.75;;;;;10.98;62.91;101703.31;2441808;28;45210;-81
2022/03/05 05:06:35;;;;;;;;;52.00;39.25;;;;;10.96;62.79;101694.59;2441746;28;45386;-81
2022/03/05 05:07:46;;;;;;;;;52.25;40.75;;;;;10.95;62.90;101697.25;2442084;28;45349;-81
2022/03/05 05:08:56;;;;;;;;;51.50;41.00;;;;;10.91;62.82;101696.44;2441671;28;45480;-81
2022/03/05 05:10:07;;;;;;;;;51.75;39.25;;;;;10.93;62.77;101705.16;2441999;28;45295;-81
2022/03/05 05:11:17;;;;;;;;;49.50;38.50;;;;;10.90;62.78;101708.72;2450759;28;45452;-82
2022/03/05 05:12:27;;;;;;;;;51.25;41.25;;;;;10.89;62.98;101703.50;2448563;27;45380;-83
2022/03/05 05:13:39;;;;;;;;;53.75;43.75;;;;;10.88;63.23;101707.00;2448228;27;45542;-83
2022/03/05 05:14:49;;;;;;;;;53.00;43.00;;;;;10.86;63.02;101698.28;2450850;28;45234;-84
2022/03/05 05:16:00;;;;;;;;;53.75;40.75;;;;;10.85;63.22;101707.94;2442114;27;45511;-84
2022/03/05 05:17:10;;;;;;;;;51.25;41.00;;;;;10.83;63.18;101698.34;2441875;28;45234;-83
2022/03/05 05:18:21;;;;;;;;;53.00;42.25;;;;;10.85;63.33;101707.06;2440822;28;47390;-83
2022/03/05 05:19:31;;;;;;;;;53.25;41.00;;;;;10.84;63.02;101702.72;2441115;28;45241;-83
2022/03/05 05:20:42;;;;;;;;;55.50;42.25;;;;;10.84;63.16;101707.97;2441016;28;45319;-83
2022/03/05 05:21:55;;;;;;;;;51.75;41.00;;;;;10.80;63.19;101704.53;2441942;28;44597;-83